createdAt,value
2018-05-18T02:48:18.668Z,3
2018-05-18T02:56:19.159Z,7
2018-05-18T03:01:49.522Z,10
2018-05-18T03:04:19.616Z,13
2018-05-18T03:06:19.750Z,17
2018-05-18T03:07:49.872Z,20
2018-05-18T03:09:19.911Z,23
2018-05-18T03:11:50.118Z,27
2018-05-18T03:14:20.284Z,30
2018-05-18T03:15:20.306Z,33
2018-05-18T03:16:20.373Z,37
2018-05-18T03:17:20.456Z,40
2018-05-18T03:17:50.505Z,43
2018-05-18T03:18:20.511Z,47
2018-05-18T03:18:50.519Z,50
2018-05-18T03:19:20.565Z,53
2018-05-18T03:22:20.705Z,57
2018-05-18T03:22:50.787Z,60
2018-05-18T03:23:20.860Z,67
2018-05-18T03:23:50.829Z,73
2018-05-18T03:24:50.915Z,80
2018-05-18T03:25:20.962Z,83
2018-05-18T03:25:50.979Z,87
2018-05-18T03:26:20.978Z,93
2018-05-18T03:26:51.007Z,100
2018-05-18T03:27:21.054Z,103
2018-05-18T03:27:51.083Z,100
2018-05-18T03:29:21.193Z,97
2018-05-18T03:30:21.250Z,103
2018-05-18T03:30:51.617Z,110
2018-05-18T03:31:21.300Z,120
2018-05-18T03:31:51.362Z,137
2018-05-18T03:32:21.384Z,153
2018-05-18T03:32:51.404Z,170
2018-05-18T03:33:21.427Z,183
2018-05-18T03:33:51.455Z,193
2018-05-18T03:34:21.591Z,200
2018-05-18T03:34:51.508Z,203
2018-05-18T03:35:21.522Z,207
2018-05-18T03:35:51.571Z,210
2018-05-18T03:36:21.597Z,213
2018-05-18T03:36:51.668Z,227
2018-05-18T03:37:21.676Z,243
2018-05-18T03:37:51.738Z,257
2018-05-18T03:38:21.737Z,277
2018-05-18T03:38:51.785Z,293
2018-05-18T03:39:21.881Z,300
2018-05-18T03:40:21.838Z,297
2018-05-18T03:40:51.912Z,303
2018-05-18T03:41:21.906Z,317
2018-05-18T03:42:21.988Z,323
2018-05-18T03:42:52.042Z,350
2018-05-18T03:43:22.005Z,357
2018-05-18T03:43:52.115Z,367
2018-05-18T03:44:22.179Z,387
2018-05-18T03:44:52.189Z,403
2018-05-18T03:45:22.208Z,413
2018-05-18T03:45:52.207Z,423
2018-05-18T03:46:22.261Z,430
2018-05-18T03:46:52.284Z,450
2018-05-18T03:47:22.307Z,467
2018-05-18T03:48:22.377Z,463
2018-05-18T03:49:52.475Z,467
2018-05-18T03:50:22.452Z,477
2018-05-18T03:50:52.494Z,480
2018-05-18T03:51:22.582Z,460
2018-05-18T03:51:52.571Z,450
2018-05-18T03:52:22.619Z,457
2018-05-18T03:52:52.612Z,473
2018-05-18T03:53:22.663Z,487
2018-05-18T03:53:52.712Z,490
2018-05-18T03:54:22.740Z,493
2018-05-18T03:54:52.743Z,490
2018-05-18T03:55:22.738Z,507
2018-05-18T03:55:52.773Z,540
2018-05-18T03:56:22.831Z,557
2018-05-18T03:56:52.837Z,560
2018-05-18T03:57:22.899Z,550
2018-05-18T03:57:52.906Z,547
2018-05-18T03:58:52.954Z,563
2018-05-18T03:59:23.046Z,580
2018-05-18T04:00:23.057Z,590
2018-05-18T04:00:53.073Z,597
2018-05-18T04:01:23.194Z,593
2018-05-18T04:01:53.171Z,597
2018-05-18T04:02:23.190Z,600
2018-05-18T04:03:53.276Z,603
2018-05-18T04:04:23.340Z,610
2018-05-18T04:04:53.393Z,607
2018-05-18T04:05:53.422Z,600
2018-05-18T04:06:23.465Z,603
2018-05-18T04:06:53.472Z,600
2018-05-18T04:07:23.553Z,620
2018-05-18T04:07:53.563Z,640
2018-05-18T04:08:23.588Z,670
2018-05-18T04:08:53.617Z,673
2018-05-18T04:09:53.738Z,683
2018-05-18T04:10:23.714Z,703
2018-05-18T04:10:53.783Z,707
2018-05-18T04:11:23.761Z,717
2018-05-18T04:11:53.975Z,750
2018-05-18T04:12:23.812Z,777
2018-05-18T04:12:53.851Z,800
2018-05-18T04:13:23.887Z,810
2018-05-18T04:13:53.922Z,807
2018-05-18T04:14:23.960Z,817
2018-05-18T04:14:54.039Z,823
2018-05-18T04:15:24.019Z,813
2018-05-18T04:15:54.044Z,810
2018-05-18T04:16:24.082Z,817
2018-05-18T04:16:54.110Z,830
2018-05-18T04:17:24.148Z,840
2018-05-18T04:17:54.179Z,857
2018-05-18T04:18:24.217Z,887
2018-05-18T04:18:54.230Z,907
2018-05-18T04:19:24.257Z,893
2018-05-18T04:19:54.412Z,890
2018-05-18T04:20:24.344Z,903
2018-05-18T04:20:54.344Z,917
2018-05-18T04:21:24.396Z,930
2018-05-18T04:21:54.394Z,963
2018-05-18T04:22:24.484Z,1050
2018-05-18T04:22:54.469Z,1160
2018-05-18T04:23:24.519Z,1260
2018-05-18T04:23:54.536Z,1317
2018-05-18T04:24:24.567Z,1340
2018-05-18T04:24:54.588Z,1333
2018-05-18T04:25:54.651Z,1327
2018-05-18T04:26:24.722Z,1387
2018-05-18T04:26:54.726Z,1397
2018-05-18T04:27:24.791Z,1327
2018-05-18T04:27:54.779Z,1310
2018-05-18T04:28:24.821Z,1350
2018-05-18T04:28:54.833Z,1460
2018-05-18T04:29:24.901Z,1570
2018-05-18T04:29:54.869Z,1637
2018-05-18T04:30:25.013Z,1670
2018-05-18T04:30:54.976Z,1643
2018-05-18T04:31:25.015Z,1683
2018-05-18T04:31:55.031Z,1763
2018-05-18T04:32:25.104Z,1757
2018-05-18T04:32:55.090Z,1700
2018-05-18T04:33:25.135Z,1687
2018-05-18T04:33:55.149Z,1717
2018-05-18T04:34:25.219Z,1723
2018-05-18T04:34:55.306Z,1747
2018-05-18T04:35:25.329Z,1767
2018-05-18T04:35:55.270Z,1717
2018-05-18T04:36:25.295Z,1707
2018-05-18T04:36:55.342Z,1673
2018-05-18T04:37:25.395Z,1613
2018-05-18T04:38:25.405Z,1593
2018-05-18T04:38:55.476Z,1547
2018-05-18T04:39:25.572Z,1530
2018-05-18T04:39:55.497Z,1500
2018-05-18T04:40:25.578Z,1507
2018-05-18T04:40:55.598Z,1463
2018-05-18T04:41:25.588Z,1427
2018-05-18T04:41:55.663Z,1410
2018-05-18T04:42:25.718Z,1413
2018-05-18T04:42:55.691Z,1427
2018-05-18T04:43:25.719Z,1470
2018-05-18T04:43:55.863Z,1523
2018-05-18T04:44:25.817Z,1563
2018-05-18T04:44:55.788Z,1577
2018-05-18T04:45:25.824Z,1617
2018-05-18T04:45:55.918Z,1633
2018-05-18T04:46:25.882Z,1640
2018-05-18T04:46:55.929Z,1637
2018-05-18T04:47:25.947Z,1630
2018-05-18T04:47:55.975Z,1643
2018-05-18T04:48:26.054Z,1690
2018-05-18T04:48:56.036Z,1720
2018-05-18T04:49:26.128Z,1747
2018-05-18T04:49:56.109Z,1740
2018-05-18T04:50:26.185Z,1713
2018-05-18T04:50:56.267Z,1693
2018-05-18T04:51:26.216Z,1630
2018-05-18T04:51:56.321Z,1550
2018-05-18T04:52:26.294Z,1517
2018-05-18T04:52:56.342Z,1537
2018-05-18T04:53:26.372Z,1583
2018-05-18T04:53:56.364Z,1627
2018-05-18T04:54:26.406Z,1700
2018-05-18T04:54:56.435Z,1773
2018-05-18T04:55:26.547Z,1847
2018-05-18T04:55:56.508Z,1830
2018-05-18T04:56:26.566Z,1763
2018-05-18T04:56:56.572Z,1667
2018-05-18T04:57:26.608Z,1567
2018-05-18T04:57:56.650Z,1527
2018-05-18T04:58:56.716Z,1547
2018-05-18T04:59:26.745Z,1567
2018-05-18T04:59:56.756Z,1583
2018-05-18T05:00:26.820Z,1580
2018-05-18T05:00:56.854Z,1583
2018-05-18T05:01:26.835Z,1587
2018-05-18T05:01:56.876Z,1610
2018-05-18T05:02:26.944Z,1613
2018-05-18T05:02:56.986Z,1643
2018-05-18T05:03:26.966Z,1677
2018-05-18T05:03:56.957Z,1747
2018-05-18T05:04:27.029Z,1837
2018-05-18T05:04:57.051Z,1833
2018-05-18T05:05:27.243Z,1863
2018-05-18T05:05:57.165Z,1877
2018-05-18T05:06:27.162Z,1903
2018-05-18T05:07:27.227Z,1893
2018-05-18T05:07:57.249Z,1883
2018-05-18T05:08:27.298Z,1853
2018-05-18T05:08:57.313Z,1830
2018-05-18T05:09:27.349Z,1787
2018-05-18T05:09:57.391Z,1773
2018-05-18T05:10:27.466Z,1780
2018-05-18T05:10:57.431Z,1787
2018-05-18T05:11:27.475Z,1793
2018-05-18T05:11:57.467Z,1790
2018-05-18T05:12:27.587Z,1773
2018-05-18T05:12:57.600Z,1777
2018-05-18T05:13:27.594Z,1783
2018-05-18T05:13:57.663Z,1807
2018-05-18T05:14:27.683Z,1827
2018-05-18T05:14:57.647Z,1830
2018-05-18T05:15:27.792Z,1843
2018-05-18T05:15:57.746Z,1883
2018-05-18T05:16:27.807Z,1937
2018-05-18T05:16:57.801Z,1983
2018-05-18T05:17:27.843Z,2033
2018-05-18T05:17:57.939Z,2063
2018-05-18T05:18:27.893Z,2057
2018-05-18T05:18:57.925Z,2043
2018-05-18T05:19:27.964Z,2057
2018-05-18T05:19:57.985Z,2073
2018-05-18T05:20:28.012Z,2093
2018-05-18T05:20:58.020Z,2113
2018-05-18T05:21:28.092Z,2110
2018-05-18T05:21:58.111Z,2057
2018-05-18T05:22:28.145Z,2020
2018-05-18T05:22:58.174Z,1993
2018-05-18T05:23:28.216Z,1977
2018-05-18T05:23:58.248Z,1997
2018-05-18T05:24:28.317Z,2020
2018-05-18T05:24:58.300Z,2053
2018-05-18T05:25:28.602Z,2073
2018-05-18T05:25:58.366Z,2123
2018-05-18T05:26:28.366Z,2063
2018-05-18T05:27:28.455Z,2090
2018-05-18T05:27:58.457Z,2140
2018-05-18T05:28:28.518Z,2190
2018-05-18T05:28:58.527Z,2200
2018-05-18T05:29:28.569Z,2217
2018-05-18T05:29:58.578Z,2200
2018-05-18T05:30:28.715Z,2183
2018-05-18T05:30:58.640Z,2177
2018-05-18T05:31:28.680Z,2197
2018-05-18T05:31:58.686Z,2233
2018-05-18T05:32:28.717Z,2260
2018-05-18T05:32:58.751Z,2257
2018-05-18T05:33:28.796Z,2247
2018-05-18T05:33:58.806Z,2237
2018-05-18T05:34:28.875Z,2217
2018-05-18T05:34:58.867Z,2247
2018-05-18T05:35:28.898Z,2290
2018-05-18T05:35:58.945Z,2333
2018-05-18T05:36:28.960Z,2390
2018-05-18T05:36:59.025Z,2507
2018-05-18T05:37:29.018Z,2547
2018-05-18T05:37:59.088Z,2540
2018-05-18T05:38:29.100Z,2527
2018-05-18T05:38:59.117Z,2540
2018-05-18T05:39:29.190Z,2560
2018-05-18T05:39:59.174Z,2543
2018-05-18T05:40:29.279Z,2487
2018-05-18T05:40:59.294Z,2460
2018-05-18T05:41:29.263Z,2450
2018-05-18T05:41:59.386Z,2457
2018-05-18T05:42:29.356Z,2423
2018-05-18T05:42:59.414Z,2427
2018-05-18T05:43:29.433Z,2503
2018-05-18T05:43:59.460Z,2553
2018-05-18T05:44:29.460Z,2730
2018-05-18T05:44:59.528Z,2863
2018-05-18T05:45:29.579Z,2913
2018-05-18T05:45:59.582Z,2937
2018-05-18T05:46:29.602Z,2963
2018-05-18T05:46:59.660Z,2987
2018-05-18T05:47:29.692Z,3010
2018-05-18T05:47:59.699Z,2967
2018-05-18T05:48:29.693Z,2947
2018-05-18T05:48:59.773Z,2893
2018-05-18T05:49:29.781Z,2910
2018-05-18T05:49:59.857Z,2943
2018-05-18T05:50:29.871Z,2987
2018-05-18T05:50:59.930Z,2943
2018-05-18T05:51:29.921Z,2853
2018-05-18T05:51:59.972Z,2780
2018-05-18T05:52:29.997Z,2773
2018-05-18T05:53:00.043Z,2787
2018-05-18T05:53:30.061Z,2843
2018-05-18T05:54:00.042Z,2977
2018-05-18T05:54:30.110Z,2997
2018-05-18T05:55:00.127Z,3060
2018-05-18T05:55:30.205Z,3083
2018-05-18T05:56:00.972Z,3050
2018-05-18T05:56:30.226Z,3017
2018-05-18T05:57:01.426Z,3033
2018-05-18T05:57:30.306Z,3093
2018-05-18T05:58:01.191Z,3247
2018-05-18T05:58:30.370Z,3347
2018-05-18T05:59:01.525Z,3503
2018-05-18T05:59:30.427Z,3647
2018-05-18T06:00:01.834Z,3737
2018-05-18T06:00:30.505Z,3803
2018-05-18T06:01:00.914Z,3840
2018-05-18T06:01:30.546Z,3880
2018-05-18T06:02:01.601Z,3987
2018-05-18T06:02:30.632Z,4103
2018-05-18T06:03:01.569Z,4180
2018-05-18T06:03:30.677Z,4093
2018-05-18T06:04:00.905Z,3843
2018-05-18T06:04:30.732Z,3623
2018-05-18T06:05:01.225Z,3483
2018-05-18T06:05:30.814Z,3383
2018-05-18T06:06:01.587Z,3307
2018-05-18T06:06:30.855Z,3313
2018-05-18T06:07:01.989Z,3380
2018-05-18T06:07:30.901Z,3337
2018-05-18T06:08:00.893Z,3313
2018-05-18T06:08:30.976Z,3303
2018-05-18T06:09:01.849Z,3377
2018-05-18T06:09:31.041Z,3463
2018-05-18T06:10:02.626Z,3513
2018-05-18T06:10:31.118Z,3580
2018-05-18T06:11:01.475Z,3560
2018-05-18T06:11:31.183Z,3583
2018-05-18T06:12:01.480Z,3600
2018-05-18T06:12:31.236Z,3643
2018-05-18T06:13:01.198Z,3807
2018-05-18T06:13:31.292Z,3983
2018-05-18T06:14:01.268Z,4243
2018-05-18T06:14:31.353Z,4517
2018-05-18T06:15:01.326Z,4667
2018-05-18T06:15:31.414Z,4540
2018-05-18T06:16:01.552Z,4230
2018-05-18T06:16:31.511Z,3973
2018-05-18T06:17:01.470Z,3820
2018-05-18T06:17:31.508Z,3623
2018-05-18T06:18:01.672Z,3490
2018-05-18T06:18:31.651Z,3437
2018-05-18T06:19:01.828Z,3527
2018-05-18T06:19:31.615Z,3803
2018-05-18T06:20:01.679Z,4177
2018-05-18T06:20:31.662Z,4520
2018-05-18T06:21:01.732Z,4810
2018-05-18T06:21:31.721Z,4797
2018-05-18T06:22:01.920Z,4727
2018-05-18T06:22:31.801Z,4710
2018-05-18T06:23:01.851Z,4763
2018-05-18T06:23:31.852Z,4890
2018-05-18T06:24:01.885Z,5137
2018-05-18T06:24:31.906Z,5467
2018-05-18T06:25:02.554Z,5557
2018-05-18T06:25:32.031Z,5483
2018-05-18T06:26:02.024Z,5417
2018-05-18T06:26:32.032Z,5597
2018-05-18T06:27:02.069Z,5870
2018-05-18T06:27:32.110Z,6257
2018-05-18T06:28:02.137Z,6593
2018-05-18T06:28:32.230Z,6930
2018-05-18T06:29:02.189Z,7173
2018-05-18T06:29:32.211Z,7450
2018-05-18T06:30:02.322Z,7643
2018-05-18T06:30:32.336Z,7820
2018-05-18T06:31:02.326Z,7643
2018-05-18T06:31:32.333Z,6827
2018-05-18T06:32:02.383Z,6337
2018-05-18T06:32:32.419Z,6280
2018-05-18T06:33:02.622Z,6513
2018-05-18T06:33:32.515Z,6720
2018-05-18T06:34:02.506Z,7023
2018-05-18T06:34:32.631Z,7340
2018-05-18T06:35:02.678Z,7457
2018-05-18T06:35:32.621Z,6883
2018-05-18T06:36:02.689Z,6290
2018-05-18T06:36:32.712Z,6063
2018-05-18T06:37:02.732Z,5870
2018-05-18T06:37:32.778Z,5970
2018-05-18T06:38:02.745Z,6313
2018-05-18T06:38:32.811Z,6680
2018-05-18T06:39:02.875Z,6957
2018-05-18T06:39:32.860Z,7317
2018-05-18T06:40:02.918Z,7633
2018-05-18T06:40:32.985Z,7740
2018-05-18T06:41:02.986Z,7657
2018-05-18T06:41:32.973Z,7550
2018-05-18T06:42:03.000Z,7627
2018-05-18T06:42:33.018Z,7763
2018-05-18T06:43:03.080Z,7663
2018-05-18T06:43:33.128Z,7240
2018-05-18T06:44:03.100Z,7013
2018-05-18T06:44:33.172Z,7007
2018-05-18T06:45:03.210Z,6737
2018-05-18T06:45:33.220Z,6373
2018-05-18T06:46:03.270Z,6307
2018-05-18T06:46:33.298Z,6523
2018-05-18T06:47:03.313Z,7253
2018-05-18T06:47:33.370Z,7600
2018-05-18T06:48:03.396Z,7037
2018-05-18T06:48:33.437Z,6150
2018-05-18T06:49:03.406Z,5553
2018-05-18T06:49:33.491Z,5480
2018-05-18T06:50:03.510Z,5760
2018-05-18T06:50:33.497Z,6113
2018-05-18T06:51:03.578Z,6583
2018-05-18T06:51:33.617Z,7060
2018-05-18T06:52:03.661Z,7750
2018-05-18T06:52:33.761Z,8763
2018-05-18T06:53:03.728Z,9420
2018-05-18T06:53:33.759Z,9600
2018-05-18T06:54:03.755Z,9260
2018-05-18T06:54:33.796Z,9170
2018-05-18T06:55:03.979Z,9627
2018-05-18T06:55:33.940Z,10410
2018-05-18T06:56:03.908Z,11167
2018-05-18T06:56:33.952Z,11290
2018-05-18T06:57:03.970Z,10910
2018-05-18T06:57:33.999Z,10267
2018-05-18T06:58:03.995Z,9783
2018-05-18T06:58:34.009Z,9303
2018-05-18T06:59:04.058Z,9097
2018-05-18T06:59:34.108Z,9657
2018-05-18T07:00:04.158Z,10483
2018-05-18T07:00:34.176Z,10693
2018-05-18T07:01:04.163Z,10310
2018-05-18T07:01:34.243Z,10180
2018-05-18T07:02:04.214Z,10887
2018-05-18T07:02:34.263Z,11740
2018-05-18T07:03:04.296Z,11800
2018-05-18T07:03:34.388Z,10640
2018-05-18T07:04:04.391Z,9443
2018-05-18T07:04:34.425Z,8263
2018-05-18T07:05:04.419Z,7247
2018-05-18T07:05:34.475Z,6733
2018-05-18T07:06:04.492Z,6553
2018-05-18T07:06:34.490Z,6800
2018-05-18T07:07:04.541Z,7447
2018-05-18T07:07:34.581Z,7847
2018-05-18T07:08:04.573Z,8083
2018-05-18T07:08:34.665Z,8203
2018-05-18T07:09:04.646Z,8540
2018-05-18T07:09:34.696Z,9167
2018-05-18T07:10:04.709Z,9927
2018-05-18T07:10:34.896Z,10457
2018-05-18T07:11:04.823Z,10167
2018-05-18T07:11:34.807Z,9717
2018-05-18T07:12:04.843Z,9890
2018-05-18T07:12:34.858Z,9993
2018-05-18T07:13:04.898Z,9527
2018-05-18T07:13:34.915Z,9113
2018-05-18T07:14:05.132Z,9140
2018-05-18T07:14:34.988Z,9517
2018-05-18T07:15:05.010Z,10090
2018-05-18T07:15:35.051Z,10520
2018-05-18T07:16:05.141Z,10727
2018-05-18T07:16:35.179Z,11077
2018-05-18T07:17:05.168Z,11477
2018-05-18T07:17:35.245Z,11193
2018-05-18T07:18:05.238Z,10880
2018-05-18T07:18:35.239Z,10730
2018-05-18T07:19:05.278Z,11060
2018-05-18T07:19:35.337Z,11107
2018-05-18T07:20:05.312Z,10927
2018-05-18T07:20:35.416Z,10597
2018-05-18T07:21:05.445Z,10263
2018-05-18T07:21:35.432Z,10020
2018-05-18T07:22:05.437Z,10010
2018-05-18T07:22:35.482Z,10110
2018-05-18T07:23:05.658Z,10337
2018-05-18T07:23:35.592Z,10630
2018-05-18T07:24:05.567Z,10633
2018-05-18T07:24:35.624Z,10103
2018-05-18T07:25:05.654Z,9530
2018-05-18T07:25:35.706Z,9263
2018-05-18T07:26:05.729Z,9193
2018-05-18T07:26:35.775Z,9393
2018-05-18T07:27:05.798Z,9640
2018-05-18T07:27:35.819Z,9550
2018-05-18T07:28:05.837Z,9277
2018-05-18T07:28:35.887Z,8930
2018-05-18T07:29:05.926Z,8533
2018-05-18T07:29:35.957Z,8297
2018-05-18T07:30:06.010Z,8363
2018-05-18T07:30:36.048Z,8973
2018-05-18T07:31:06.051Z,9470
2018-05-18T07:31:36.067Z,9813
2018-05-18T07:32:06.136Z,10077
2018-05-18T07:32:36.137Z,10387
2018-05-18T07:33:06.131Z,10993
2018-05-18T07:33:36.213Z,11633
2018-05-18T07:34:06.224Z,11943
2018-05-18T07:34:36.271Z,11750
2018-05-18T07:35:06.235Z,11110
2018-05-18T07:35:36.344Z,10303
2018-05-18T07:36:06.390Z,9690
2018-05-18T07:36:36.361Z,9030
2018-05-18T07:37:06.418Z,8537
2018-05-18T07:37:36.447Z,8320
2018-05-18T07:38:06.478Z,8197
2018-05-18T07:38:36.509Z,8400
2018-05-18T07:39:06.560Z,8827
2018-05-18T07:39:36.565Z,9437
2018-05-18T07:40:06.541Z,9817
2018-05-18T07:40:36.690Z,10287
2018-05-18T07:41:06.662Z,10917
2018-05-18T07:41:36.683Z,11337
2018-05-18T07:42:06.716Z,11263
2018-05-18T07:42:36.759Z,11207
2018-05-18T07:43:06.782Z,10977
2018-05-18T07:43:36.790Z,10130
2018-05-18T07:44:06.837Z,9383
2018-05-18T07:44:36.879Z,9220
2018-05-18T07:45:06.901Z,9303
2018-05-18T07:45:37.031Z,9287
2018-05-18T07:46:06.965Z,9073
2018-05-18T07:46:37.004Z,9120
2018-05-18T07:47:07.024Z,9397
2018-05-18T07:47:37.094Z,9873
2018-05-18T07:48:07.090Z,10403
2018-05-18T07:48:37.145Z,10797
2018-05-18T07:49:07.147Z,10910
2018-05-18T07:49:37.155Z,10857
2018-05-18T07:50:07.236Z,10870
2018-05-18T07:50:37.279Z,11087
2018-05-18T07:51:07.270Z,10973
2018-05-18T07:51:37.329Z,10490
2018-05-18T07:52:07.329Z,10123
2018-05-18T07:52:37.387Z,10103
2018-05-18T07:53:07.387Z,10450
2018-05-18T07:53:37.471Z,11110
2018-05-18T07:54:07.424Z,11733
2018-05-18T07:54:37.482Z,12373
2018-05-18T07:55:07.488Z,12840
2018-05-18T07:55:37.521Z,12880
2018-05-18T07:56:07.590Z,12917
2018-05-18T07:56:37.575Z,12810
2018-05-18T07:57:07.602Z,12383
2018-05-18T07:57:37.640Z,11707
2018-05-18T07:58:07.663Z,11370
2018-05-18T07:58:37.701Z,11687
2018-05-18T07:59:07.710Z,11897
2018-05-18T07:59:37.913Z,11790
2018-05-18T08:00:07.793Z,11767
2018-05-18T08:00:37.832Z,12023
2018-05-18T08:01:07.836Z,12287
2018-05-18T08:01:37.878Z,12157
2018-05-18T08:02:07.926Z,11493
2018-05-18T08:02:37.936Z,10790
2018-05-18T08:03:07.975Z,10257
2018-05-18T08:03:37.998Z,10443
2018-05-18T08:04:08.078Z,11577
2018-05-18T08:04:38.088Z,12873
2018-05-18T08:05:08.187Z,13750
2018-05-18T08:05:38.179Z,14220
2018-05-18T08:06:08.146Z,14383
2018-05-18T08:06:38.170Z,13777
2018-05-18T08:07:08.248Z,12573
2018-05-18T08:07:38.302Z,11513
2018-05-18T08:08:08.306Z,11330
2018-05-18T08:08:38.330Z,12060
2018-05-18T08:09:08.343Z,13120
2018-05-18T08:09:38.422Z,13867
2018-05-18T08:10:08.461Z,13760
2018-05-18T08:10:38.481Z,13253
2018-05-18T08:11:08.518Z,12473
2018-05-18T08:11:38.539Z,12213
2018-05-18T08:12:08.592Z,11937
2018-05-18T08:12:38.617Z,11660
2018-05-18T08:13:08.575Z,11710
2018-05-18T08:13:38.663Z,11580
2018-05-18T08:14:08.694Z,11963
2018-05-18T08:14:38.733Z,12560
2018-05-18T08:15:08.825Z,13287
2018-05-18T08:15:38.801Z,12957
2018-05-18T08:16:08.830Z,12267
2018-05-18T08:16:38.833Z,11973
2018-05-18T08:17:08.889Z,11940
2018-05-18T08:17:38.913Z,12323
2018-05-18T08:18:08.886Z,12977
2018-05-18T08:18:38.980Z,13650
2018-05-18T08:19:08.996Z,14560
2018-05-18T08:19:39.011Z,15630
2018-05-18T08:20:09.107Z,16153
2018-05-18T08:20:39.076Z,15647
2018-05-18T08:21:09.130Z,15357
2018-05-18T08:21:39.297Z,15850
2018-05-18T08:22:09.191Z,16253
2018-05-18T08:22:39.223Z,16150
2018-05-18T08:23:09.249Z,15837
2018-05-18T08:23:39.231Z,15507
2018-05-18T08:24:09.314Z,14960
2018-05-18T08:24:39.322Z,14033
2018-05-18T08:25:09.385Z,13200
2018-05-18T08:25:39.401Z,12700
2018-05-18T08:26:09.397Z,11687
2018-05-18T08:26:39.473Z,10697
2018-05-18T08:27:09.527Z,10023
2018-05-18T08:27:39.554Z,9703
2018-05-18T08:28:09.529Z,9707
2018-05-18T08:28:39.584Z,9710
2018-05-18T08:29:09.635Z,9687
2018-05-18T08:29:39.647Z,9690
2018-05-18T08:30:09.696Z,9843
2018-05-18T08:30:39.713Z,10177
2018-05-18T08:31:09.764Z,10667
2018-05-18T08:31:39.765Z,11553
2018-05-18T08:32:09.764Z,12057
2018-05-18T08:32:39.836Z,11620
2018-05-18T08:33:09.884Z,10800
2018-05-18T08:33:39.902Z,10537
2018-05-18T08:34:09.938Z,10453
2018-05-18T08:34:39.963Z,10137
2018-05-18T08:35:10.026Z,9647
2018-05-18T08:35:40.022Z,9220
2018-05-18T08:36:10.065Z,8987
2018-05-18T08:36:40.088Z,8780
2018-05-18T08:37:10.132Z,8620
2018-05-18T08:37:40.154Z,8953
2018-05-18T08:38:10.211Z,9180
2018-05-18T08:38:40.206Z,8863
2018-05-18T08:39:10.235Z,8487
2018-05-18T08:39:40.259Z,8343
2018-05-18T08:40:10.327Z,8593
2018-05-18T08:40:40.287Z,8917
2018-05-18T08:41:10.327Z,8973
2018-05-18T08:41:40.372Z,8847
2018-05-18T08:42:10.388Z,8580
2018-05-18T08:42:40.430Z,8337
2018-05-18T08:43:10.474Z,8057
2018-05-18T08:43:40.461Z,7790
2018-05-18T08:44:10.521Z,7507
2018-05-18T08:44:40.527Z,7290
2018-05-18T08:45:10.595Z,7207
2018-05-18T08:45:40.843Z,7247
2018-05-18T08:46:10.659Z,7203
2018-05-18T08:46:40.726Z,7057
2018-05-18T08:47:10.674Z,6933
2018-05-18T08:47:40.720Z,6817
2018-05-18T08:48:10.763Z,6737
2018-05-18T08:48:40.821Z,6860
2018-05-18T08:49:10.811Z,7163
2018-05-18T08:49:40.865Z,7553
2018-05-18T08:50:10.860Z,8073
2018-05-18T08:50:40.914Z,8610
2018-05-18T08:51:10.949Z,9143
2018-05-18T08:51:40.975Z,9653
2018-05-18T08:52:11.010Z,9590
2018-05-18T08:52:41.062Z,9177
2018-05-18T08:53:11.087Z,8687
2018-05-18T08:53:41.083Z,8457
2018-05-18T08:54:11.129Z,8517
2018-05-18T08:54:41.198Z,8730
2018-05-18T08:55:11.208Z,9120
2018-05-18T08:55:41.203Z,9567
2018-05-18T08:56:11.259Z,9913
2018-05-18T08:56:41.293Z,10117
2018-05-18T08:57:11.325Z,10217
2018-05-18T08:57:41.385Z,10073
2018-05-18T08:58:11.376Z,9807
2018-05-18T08:58:41.401Z,9127
2018-05-18T08:59:11.409Z,8350
2018-05-18T08:59:41.443Z,7770
2018-05-18T09:00:11.482Z,7197
2018-05-18T09:00:41.624Z,6893
2018-05-18T09:01:11.539Z,6867
2018-05-18T09:01:41.662Z,7087
2018-05-18T09:02:11.609Z,7547
2018-05-18T09:02:41.653Z,8173
2018-05-18T09:03:11.680Z,8533
2018-05-18T09:03:41.723Z,8520
2018-05-18T09:04:11.794Z,8500
2018-05-18T09:04:41.780Z,8453
2018-05-18T09:05:11.870Z,8293
2018-05-18T09:05:41.848Z,8043
2018-05-18T09:06:11.896Z,8250
2018-05-18T09:06:41.962Z,8567
2018-05-18T09:07:11.950Z,8690
2018-05-18T09:07:41.957Z,8810
2018-05-18T09:08:11.993Z,8900
2018-05-18T09:08:42.017Z,9133
2018-05-18T09:09:12.094Z,9257
2018-05-18T09:09:42.100Z,9283
2018-05-18T09:10:12.167Z,9467
2018-05-18T09:10:42.152Z,9440
2018-05-18T09:11:12.210Z,9290
2018-05-18T09:11:42.246Z,8807
2018-05-18T09:12:12.300Z,8407
2018-05-18T09:12:42.315Z,8107
2018-05-18T09:13:12.279Z,7947
2018-05-18T09:13:42.340Z,7737
2018-05-18T09:14:12.338Z,7373
2018-05-18T09:14:42.367Z,7163
2018-05-18T09:15:12.432Z,7010
2018-05-18T09:15:42.457Z,6950
2018-05-18T09:16:12.479Z,6887
2018-05-18T09:16:42.497Z,6817
2018-05-18T09:17:12.617Z,6750
2018-05-18T09:17:42.574Z,6690
2018-05-18T09:18:12.660Z,6710
2018-05-18T09:18:42.645Z,6847
2018-05-18T09:19:12.672Z,6953
2018-05-18T09:19:42.896Z,6977
2018-05-18T09:20:12.913Z,7013
2018-05-18T09:20:42.978Z,7107
2018-05-18T09:21:12.989Z,7150
2018-05-18T09:21:43.063Z,7197
2018-05-18T09:22:13.080Z,7120
2018-05-18T09:22:43.069Z,7030
2018-05-18T09:23:13.114Z,6950
2018-05-18T09:23:43.172Z,6957
2018-05-18T09:24:13.216Z,7010
2018-05-18T09:24:43.239Z,7157
2018-05-18T09:25:13.245Z,7213
2018-05-18T09:25:43.295Z,7450
2018-05-18T09:26:13.274Z,7703
2018-05-18T09:26:43.352Z,7930
2018-05-18T09:27:13.375Z,8220
2018-05-18T09:27:43.409Z,8320
2018-05-18T09:28:13.458Z,8330
2018-05-18T09:28:43.432Z,8313
2018-05-18T09:29:13.526Z,8223
2018-05-18T09:29:43.565Z,8010
2018-05-18T09:30:13.530Z,7813
2018-05-18T09:30:43.623Z,7717
2018-05-18T09:31:13.590Z,7707
2018-05-18T09:31:43.681Z,7773
2018-05-18T09:32:13.709Z,7740
2018-05-18T09:32:43.703Z,7643
2018-05-18T09:33:13.724Z,7520
2018-05-18T09:33:43.749Z,7440
2018-05-18T09:34:13.770Z,7423
2018-05-18T09:34:43.792Z,7473
2018-05-18T09:35:13.838Z,7490
2018-05-18T09:35:43.864Z,7537
2018-05-18T09:36:13.895Z,7610
2018-05-18T09:36:43.939Z,7653
2018-05-18T09:37:13.954Z,7680
2018-05-18T09:37:43.996Z,7660
2018-05-18T09:38:14.069Z,7773
2018-05-18T09:38:44.039Z,8043
2018-05-18T09:39:14.069Z,8297
2018-05-18T09:39:44.172Z,8623
2018-05-18T09:40:14.166Z,8923
2018-05-18T09:40:44.183Z,9293
2018-05-18T09:41:14.235Z,9653
2018-05-18T09:41:44.251Z,9990
2018-05-18T09:42:14.284Z,10127
2018-05-18T09:42:44.367Z,9853
2018-05-18T09:43:14.363Z,9607
2018-05-18T09:43:44.436Z,9320
2018-05-18T09:44:14.421Z,9027
2018-05-18T09:44:44.462Z,8907
2018-05-18T09:45:14.590Z,8987
2018-05-18T09:45:44.654Z,9090
2018-05-18T09:46:14.526Z,9513
2018-05-18T09:46:44.609Z,10210
2018-05-18T09:47:14.605Z,10953
2018-05-18T09:47:44.653Z,11407
2018-05-18T09:48:14.671Z,11560
2018-05-18T09:48:44.710Z,10847
2018-05-18T09:49:14.687Z,10017
2018-05-18T09:49:44.804Z,9590
2018-05-18T09:50:14.814Z,9207
2018-05-18T09:50:44.820Z,8960
2018-05-18T09:51:14.849Z,8840
2018-05-18T09:51:44.922Z,8777
2018-05-18T09:52:14.910Z,8773
2018-05-18T09:52:44.953Z,8830
2018-05-18T09:53:15.032Z,9003
2018-05-18T09:53:45.012Z,9133
2018-05-18T09:54:15.132Z,9137
2018-05-18T09:54:45.131Z,8960
2018-05-18T09:55:15.285Z,8817
2018-05-18T09:55:45.166Z,8767
2018-05-18T09:56:15.117Z,8730
2018-05-18T09:56:45.180Z,8567
2018-05-18T09:57:15.245Z,8490
2018-05-18T09:57:45.255Z,8310
2018-05-18T09:58:15.284Z,8297
2018-05-18T09:58:45.267Z,8283
2018-05-18T09:59:15.340Z,8360
2018-05-18T09:59:45.386Z,8200
2018-05-18T10:00:15.427Z,8083
2018-05-18T10:00:45.476Z,7960
2018-05-18T10:01:15.535Z,8013
2018-05-18T10:01:45.520Z,8137
2018-05-18T10:02:15.594Z,8413
2018-05-18T10:02:45.571Z,8837
2018-05-18T10:03:15.627Z,9377
2018-05-18T10:03:47.079Z,10130